createdAt,value
2023-08-21T00:00:24.836Z,18.25
2023-08-21T00:02:52.450Z,19.85
2023-08-21T00:05:20.210Z,16.48
2023-08-21T00:07:52.321Z,18.75
2023-08-21T00:10:19.779Z,18.70
2023-08-21T00:12:47.826Z,15.88
2023-08-21T00:15:15.338Z,16.63
2023-08-21T00:17:42.957Z,16.98
2023-08-21T00:20:11.903Z,19.50
2023-08-21T00:22:40.870Z,17.20
2023-08-21T00:25:08.745Z,16.52
2023-08-21T00:27:37.117Z,17.63
2023-08-21T00:30:05.113Z,15.48
2023-08-21T00:32:32.788Z,13.75
2023-08-21T00:35:00.409Z,14.48
2023-08-21T00:37:33.164Z,17.52
2023-08-21T00:40:00.634Z,19.63
2023-08-21T00:42:29.044Z,16.38
2023-08-21T00:44:57.861Z,15.52
2023-08-21T00:47:26.141Z,16.45
2023-08-21T00:49:54.141Z,15.27
2023-08-21T00:52:23.128Z,17.80
2023-08-21T00:54:52.020Z,16.83
2023-08-21T00:57:20.301Z,15.73
2023-08-21T00:59:48.880Z,14.57
2023-08-21T01:02:19.277Z,16.42
2023-08-21T01:04:47.381Z,18.83
2023-08-21T01:07:15.860Z,15.20
2023-08-21T01:09:56.656Z,17.65
2023-08-21T01:12:50.081Z,22.05
2023-08-21T01:15:18.582Z,18.67
2023-08-21T01:17:47.647Z,17.05
2023-08-21T01:20:17.962Z,18.55
2023-08-21T01:22:49.864Z,17.52
2023-08-21T01:25:17.892Z,16.60
2023-08-21T01:27:49.508Z,22.45
2023-08-21T01:30:17.628Z,23.20
2023-08-21T01:33:01.740Z,16.25
2023-08-21T01:35:31.392Z,19.17
2023-08-21T01:37:59.521Z,22.02
2023-08-21T01:40:28.450Z,18.85
2023-08-21T01:42:55.873Z,19.50
2023-08-21T01:45:23.990Z,22.20
2023-08-21T01:47:52.712Z,20.23
2023-08-21T01:50:20.273Z,21.33
2023-08-21T01:52:48.453Z,19.95
2023-08-21T01:55:16.088Z,20.30
2023-08-21T01:57:43.785Z,20.02
2023-08-21T02:00:11.991Z,21.98
2023-08-21T02:02:42.753Z,19.80
2023-08-21T02:05:10.913Z,20.92
2023-08-21T02:07:39.276Z,18.33
2023-08-21T02:10:09.858Z,20.73
2023-08-21T02:12:40.383Z,18.80
2023-08-21T02:15:11.674Z,18.60
2023-08-21T02:17:39.078Z,23.55
2023-08-21T02:20:07.764Z,22.95
2023-08-21T02:22:36.644Z,23.67
2023-08-21T02:25:04.312Z,21.17
2023-08-21T02:27:31.774Z,21.00
2023-08-21T02:30:00.125Z,21.05
2023-08-21T02:32:27.516Z,21.80
2023-08-21T02:34:55.015Z,19.77
2023-08-21T02:37:22.305Z,20.08
2023-08-21T02:39:49.694Z,24.17
2023-08-21T02:42:16.968Z,18.58
2023-08-21T02:44:44.419Z,23.20
2023-08-21T02:47:11.995Z,22.15
2023-08-21T02:49:39.533Z,18.88
2023-08-21T02:52:07.331Z,23.08
2023-08-21T02:54:34.784Z,20.67
2023-08-21T02:57:02.179Z,20.17
2023-08-21T02:59:29.665Z,19.73
2023-08-21T03:01:57.263Z,18.35
2023-08-21T03:04:25.051Z,21.13
2023-08-21T03:06:52.945Z,21.95
2023-08-21T03:09:20.304Z,18.27
2023-08-21T03:11:47.650Z,22.20
2023-08-21T03:14:17.284Z,20.65
2023-08-21T03:16:44.655Z,22.77
2023-08-21T03:19:12.279Z,20.60
2023-08-21T03:21:40.801Z,19.40
2023-08-21T03:24:08.744Z,24.33
2023-08-21T03:26:36.453Z,21.23
2023-08-21T03:29:05.154Z,22.25
2023-08-21T03:31:33.305Z,24.13
2023-08-21T03:34:00.875Z,21.85
2023-08-21T03:36:34.474Z,21.33
2023-08-21T03:39:05.558Z,22.02
2023-08-21T03:41:35.414Z,24.15
2023-08-21T03:44:02.994Z,24.65
2023-08-21T03:46:30.508Z,22.88
2023-08-21T03:48:58.211Z,21.77
2023-08-21T03:51:25.816Z,22.77
2023-08-21T03:53:53.365Z,22.65
2023-08-21T03:56:20.734Z,22.25
2023-08-21T03:58:49.555Z,22.38
2023-08-21T04:01:17.408Z,23.38
2023-08-21T04:03:45.914Z,20.67
2023-08-21T04:06:13.820Z,21.92
2023-08-21T04:08:41.188Z,21.52
2023-08-21T04:11:09.168Z,22.58
2023-08-21T04:13:37.022Z,23.80
2023-08-21T04:16:04.738Z,21.27
2023-08-21T04:18:41.280Z,24.25
2023-08-21T04:21:10.625Z,22.05
2023-08-21T04:23:39.288Z,23.40
2023-08-21T04:26:06.771Z,22.48
2023-08-21T04:28:34.868Z,23.02
2023-08-21T04:31:09.544Z,21.52
2023-08-21T04:33:37.088Z,22.30
2023-08-21T04:36:07.805Z,23.98
2023-08-21T04:38:35.361Z,22.52
2023-08-21T04:41:09.612Z,24.10
2023-08-21T04:43:40.961Z,23.10
2023-08-21T04:46:10.262Z,23.58
2023-08-21T04:48:40.581Z,21.80
2023-08-21T04:51:10.480Z,21.08
2023-08-21T04:53:38.091Z,22.63
2023-08-21T04:58:37.902Z,20.40
2023-08-21T05:01:06.536Z,19.35
2023-08-21T05:03:38.000Z,24.67
2023-08-21T05:06:06.595Z,22.73
2023-08-21T05:08:35.186Z,29.17
2023-08-21T05:11:03.959Z,24.90
2023-08-21T05:13:34.503Z,23.85
2023-08-21T05:16:03.291Z,23.40
2023-08-21T05:18:35.221Z,26.02
2023-08-21T05:21:03.042Z,24.50
2023-08-21T05:23:30.401Z,19.90
2023-08-21T05:26:03.175Z,23.02
2023-08-21T05:28:31.629Z,24.90
2023-08-21T05:30:59.536Z,21.95
2023-08-21T05:33:31.566Z,24.40
2023-08-21T05:36:00.698Z,23.17
2023-08-21T05:38:30.266Z,22.30
2023-08-21T05:40:59.914Z,22.20
2023-08-21T05:43:27.607Z,20.63
2023-08-21T05:45:55.523Z,28.60
2023-08-21T05:48:23.093Z,27.13
2023-08-21T05:50:55.609Z,23.63
2023-08-21T05:53:23.052Z,25.73
2023-08-21T05:55:50.397Z,24.55
2023-08-21T05:58:17.884Z,24.27
2023-08-21T06:00:46.050Z,22.67
2023-08-21T06:03:13.838Z,23.90
2023-08-21T06:06:19.947Z,28.58
2023-08-21T06:08:48.763Z,27.55
2023-08-21T06:11:17.253Z,26.25
2023-08-21T06:13:45.056Z,25.38
2023-08-21T06:16:14.668Z,23.67
2023-08-21T06:18:46.390Z,24.17
2023-08-21T06:21:15.802Z,24.85
2023-08-21T06:23:43.234Z,26.10
2023-08-21T06:26:11.805Z,30.10
2023-08-21T06:28:40.892Z,31.90
2023-08-21T06:31:10.345Z,25.40
2023-08-21T06:33:39.409Z,26.25
2023-08-21T06:36:08.126Z,29.10
2023-08-21T06:38:37.796Z,30.02
2023-08-21T06:41:10.722Z,25.50
2023-08-21T06:43:42.811Z,27.05
2023-08-21T06:46:13.974Z,28.20
2023-08-21T06:48:43.864Z,26.13
2023-08-21T06:51:14.513Z,29.05
2023-08-21T06:53:43.966Z,26.85
2023-08-21T06:56:11.875Z,27.90
2023-08-21T06:58:40.186Z,29.23
2023-08-21T07:01:07.764Z,31.13
2023-08-21T07:03:35.110Z,28.67
2023-08-21T07:06:02.853Z,27.83
2023-08-21T07:08:30.361Z,26.17
2023-08-21T07:10:57.769Z,26.50
2023-08-21T07:13:25.582Z,25.77
2023-08-21T07:15:56.275Z,25.55
2023-08-21T07:18:24.456Z,28.63
2023-08-21T07:20:54.869Z,30.48
2023-08-21T07:23:22.533Z,30.00
2023-08-21T07:25:49.895Z,28.20
2023-08-21T07:28:18.894Z,25.45
2023-08-21T07:30:47.070Z,26.95
2023-08-21T07:33:15.943Z,32.55
2023-08-21T07:35:43.888Z,28.63
2023-08-21T07:38:12.584Z,27.05
2023-08-21T07:40:39.979Z,27.38
2023-08-21T07:43:07.445Z,27.95
2023-08-21T07:45:38.662Z,26.48
2023-08-21T07:48:14.450Z,27.27
2023-08-21T07:50:42.901Z,29.10
2023-08-21T07:53:10.263Z,27.05
2023-08-21T07:55:38.189Z,30.52
2023-08-21T07:58:07.434Z,27.83
2023-08-21T08:00:35.468Z,28.15
2023-08-21T08:03:03.675Z,28.35
2023-08-21T08:05:34.840Z,23.98
2023-08-21T08:08:03.686Z,27.25
2023-08-21T08:10:32.088Z,24.77
2023-08-21T08:12:59.601Z,23.52
2023-08-21T08:15:27.386Z,26.05
2023-08-21T08:17:58.814Z,27.48
2023-08-21T08:20:26.313Z,20.85
2023-08-21T08:22:53.875Z,20.52
2023-08-21T08:25:21.499Z,21.48
2023-08-21T08:27:49.523Z,18.55
2023-08-21T08:30:17.461Z,20.40
2023-08-21T08:32:50.197Z,20.92
2023-08-21T08:35:17.606Z,21.13
2023-08-21T08:37:45.170Z,18.15
2023-08-21T08:40:14.460Z,20.70
2023-08-21T08:42:41.861Z,21.23
2023-08-21T08:45:10.572Z,20.77
2023-08-21T08:47:38.096Z,25.63
2023-08-21T08:50:07.857Z,20.52
2023-08-21T08:52:41.547Z,22.58
2023-08-21T08:55:10.768Z,19.70
2023-08-21T08:57:38.049Z,21.42
2023-08-21T09:00:06.498Z,21.10
2023-08-21T09:02:36.282Z,21.10
2023-08-21T09:05:05.903Z,22.27
2023-08-21T09:07:33.465Z,21.60
2023-08-21T09:10:02.222Z,20.83
2023-08-21T09:12:33.884Z,19.80
2023-08-21T09:15:02.809Z,19.52
2023-08-21T09:17:31.504Z,19.77
2023-08-21T09:20:09.220Z,16.58
2023-08-21T09:22:37.211Z,20.60
2023-08-21T09:25:10.316Z,17.92
2023-08-21T09:27:42.514Z,18.65
2023-08-21T09:30:15.996Z,43.97
2023-08-21T09:33:02.161Z,19.48
2023-08-21T09:35:34.564Z,17.35
2023-08-21T09:38:02.834Z,16.90
2023-08-21T09:40:32.546Z,19.25
2023-08-21T09:43:00.442Z,17.23
2023-08-21T09:45:30.787Z,15.75
2023-08-21T09:47:59.783Z,15.13
2023-08-21T09:50:32.344Z,19.08
2023-08-21T09:53:00.146Z,15.50
2023-08-21T09:55:47.110Z,17.15
2023-08-21T09:58:15.751Z,16.02
2023-08-21T10:00:44.654Z,13.80
2023-08-21T10:03:13.448Z,16.67
2023-08-21T10:05:42.786Z,15.25
2023-08-21T10:08:12.415Z,14.90
2023-08-21T10:10:40.893Z,18.08
2023-08-21T10:13:10.693Z,16.27
2023-08-21T10:15:39.678Z,15.50
2023-08-21T10:18:19.377Z,16.55
2023-08-21T10:20:47.334Z,15.27
2023-08-21T10:23:32.566Z,15.18
2023-08-21T10:26:02.597Z,20.95
2023-08-21T10:28:53.946Z,14.17
2023-08-21T10:31:32.586Z,13.87
2023-08-21T10:34:02.559Z,13.93
2023-08-21T10:37:07.672Z,13.20
2023-08-21T10:39:36.456Z,12.55
2023-08-21T10:42:16.609Z,14.07
2023-08-21T10:44:52.820Z,13.32
2023-08-21T10:47:28.044Z,14.27
2023-08-21T10:49:58.403Z,14.52
2023-08-21T10:52:29.761Z,16.48
2023-08-21T10:55:01.182Z,10.65
2023-08-21T11:00:11.366Z,10.98
2023-08-21T11:02:41.355Z,11.23
2023-08-21T11:05:11.924Z,15.43
2023-08-21T11:07:47.075Z,11.63
2023-08-21T11:10:17.909Z,11.13
2023-08-21T11:15:23.753Z,11.32
2023-08-21T11:18:00.313Z,13.50
2023-08-21T11:20:32.288Z,10.40
2023-08-21T11:23:03.597Z,13.25
2023-08-21T11:25:31.679Z,10.27
2023-08-21T11:27:59.377Z,10.55
2023-08-21T11:30:28.252Z,11.95
2023-08-21T11:33:13.978Z,12.57
2023-08-21T11:35:42.854Z,13.07
2023-08-21T11:38:19.791Z,12.00
2023-08-21T11:41:05.112Z,11.75
2023-08-21T11:43:44.198Z,11.52
2023-08-21T11:46:12.495Z,10.60
2023-08-21T11:48:42.992Z,11.30
2023-08-21T11:51:11.015Z,10.43
2023-08-21T11:53:43.263Z,13.13
2023-08-21T11:56:15.752Z,12.10
2023-08-21T11:58:47.143Z,11.35
2023-08-21T12:01:21.384Z,11.63
2023-08-21T12:04:09.021Z,10.80
2023-08-21T12:06:36.345Z,11.75
2023-08-21T12:09:05.925Z,11.48
2023-08-21T12:11:33.465Z,12.40
2023-08-21T12:14:02.338Z,11.57
2023-08-21T12:16:31.379Z,12.57
2023-08-21T12:18:58.860Z,11.60
2023-08-21T12:21:28.845Z,11.52
2023-08-21T12:23:57.412Z,12.70
2023-08-21T12:26:31.569Z,12.68
2023-08-21T12:29:04.861Z,12.38
2023-08-21T12:31:32.644Z,14.20
2023-08-21T12:34:00.891Z,13.25
2023-08-21T12:36:28.304Z,12.40
2023-08-21T12:38:56.353Z,13.00
2023-08-21T12:41:23.907Z,18.50
2023-08-21T12:43:51.737Z,11.70
2023-08-21T12:46:19.176Z,13.10
2023-08-21T12:48:46.583Z,11.70
2023-08-21T12:51:15.691Z,12.00
2023-08-21T12:53:43.220Z,11.60
2023-08-21T12:56:10.692Z,12.05
2023-08-21T12:58:38.220Z,16.75
2023-08-21T13:01:06.728Z,11.68
2023-08-21T13:03:38.454Z,11.70
2023-08-21T13:06:06.246Z,11.82
2023-08-21T13:08:36.333Z,12.88
2023-08-21T13:11:04.432Z,14.70
2023-08-21T13:13:31.655Z,10.65
2023-08-21T13:16:00.031Z,12.88
2023-08-21T13:18:30.661Z,11.43
2023-08-21T13:20:58.388Z,11.80
2023-08-21T13:23:25.894Z,11.30
2023-08-21T13:25:53.249Z,12.10
2023-08-21T13:28:25.199Z,15.68
2023-08-21T13:30:54.101Z,13.23
2023-08-21T13:33:21.606Z,11.52
2023-08-21T13:35:48.966Z,11.32
2023-08-21T13:38:17.655Z,11.38
2023-08-21T13:40:44.910Z,11.40
2023-08-21T13:43:13.563Z,11.68
2023-08-21T13:45:41.259Z,11.50
2023-08-21T13:48:08.748Z,11.15
2023-08-21T13:50:36.658Z,10.65
2023-08-21T13:53:05.398Z,12.60
2023-08-21T13:55:33.416Z,11.63
2023-08-21T13:58:00.799Z,13.73
2023-08-21T14:00:28.146Z,11.55
2023-08-21T14:02:55.633Z,10.60
2023-08-21T14:05:24.079Z,12.85
2023-08-21T14:07:52.670Z,10.27
2023-08-21T14:10:22.242Z,10.95
2023-08-21T14:12:50.341Z,11.35
2023-08-21T14:15:19.996Z,10.65
2023-08-21T14:17:47.422Z,9.95
2023-08-21T14:20:16.504Z,13.73
2023-08-21T14:22:43.953Z,10.73
2023-08-21T14:25:12.860Z,10.57
2023-08-21T14:27:41.040Z,9.57
2023-08-21T14:30:10.196Z,9.88
2023-08-21T14:32:39.030Z,10.55
2023-08-21T14:35:09.802Z,10.23
2023-08-21T14:37:40.493Z,10.52
2023-08-21T14:40:11.903Z,10.50
2023-08-21T14:42:40.586Z,9.80
2023-08-21T14:45:12.211Z,9.20
2023-08-21T14:47:39.619Z,9.40
2023-08-21T14:50:08.391Z,9.80
2023-08-21T14:52:36.006Z,9.77
2023-08-21T14:55:04.216Z,11.43
2023-08-21T14:57:31.632Z,9.80
2023-08-21T14:59:59.017Z,9.27
2023-08-21T15:02:28.687Z,10.80
2023-08-21T15:04:56.824Z,9.88
2023-08-21T15:07:24.256Z,11.10
2023-08-21T15:09:53.765Z,11.00
2023-08-21T15:12:21.223Z,13.13
2023-08-21T15:14:48.683Z,11.32
2023-08-21T15:17:19.523Z,10.50
2023-08-21T15:20:09.399Z,10.95
2023-08-21T15:22:37.444Z,10.63
2023-08-21T15:25:04.837Z,10.63
2023-08-21T15:27:32.394Z,10.75
2023-08-21T15:29:59.762Z,10.73
2023-08-21T15:32:28.880Z,10.88
2023-08-21T15:34:57.797Z,9.97
2023-08-21T15:37:25.128Z,11.55
2023-08-21T15:39:54.995Z,9.93
2023-08-21T15:44:50.760Z,10.27
2023-08-21T15:49:49.128Z,9.60
2023-08-21T15:52:17.701Z,9.30
2023-08-21T15:54:51.842Z,9.43
2023-08-21T15:57:21.366Z,9.20
2023-08-21T15:59:49.562Z,10.13
2023-08-21T16:02:17.746Z,11.75
2023-08-21T16:04:45.680Z,10.43
2023-08-21T16:07:13.012Z,9.77
2023-08-21T16:09:40.906Z,9.80
2023-08-21T16:12:08.711Z,9.70
2023-08-21T16:14:36.142Z,9.60
2023-08-21T16:17:03.794Z,9.95
2023-08-21T16:19:31.110Z,10.93
2023-08-21T16:21:58.634Z,10.88
2023-08-21T16:24:27.133Z,9.63
2023-08-21T16:26:55.722Z,10.65
2023-08-21T16:29:24.315Z,11.87
2023-08-21T16:31:54.424Z,8.65
2023-08-21T16:34:23.640Z,9.80
2023-08-21T16:36:52.539Z,10.60
2023-08-21T16:39:20.015Z,10.20
2023-08-21T16:41:47.514Z,8.73
2023-08-21T16:44:15.070Z,10.02
2023-08-21T16:46:45.068Z,8.93
2023-08-21T16:49:12.556Z,9.23
2023-08-21T16:51:41.218Z,8.77
2023-08-21T16:54:08.497Z,9.30
2023-08-21T16:56:36.514Z,9.18
2023-08-21T16:59:03.901Z,8.55
2023-08-21T17:01:31.383Z,12.30
2023-08-21T17:03:58.864Z,9.77
2023-08-21T17:06:26.336Z,9.98
2023-08-21T17:08:54.214Z,8.68
2023-08-21T17:11:21.591Z,9.93
2023-08-21T17:13:50.698Z,10.00
2023-08-21T17:16:18.184Z,8.73
2023-08-21T17:18:45.692Z,10.68
2023-08-21T17:21:14.614Z,9.48
2023-08-21T17:23:42.205Z,9.05
2023-08-21T17:26:09.644Z,8.93
2023-08-21T17:28:37.802Z,12.40
2023-08-21T17:31:05.352Z,9.60
2023-08-21T17:33:35.223Z,9.13
2023-08-21T17:36:02.723Z,10.90
2023-08-21T17:38:30.162Z,10.05
2023-08-21T17:40:58.151Z,8.90
2023-08-21T17:43:26.733Z,9.93
2023-08-21T17:45:54.066Z,9.82
2023-08-21T17:48:22.610Z,10.85
2023-08-21T17:50:50.494Z,10.75
2023-08-21T17:53:18.280Z,10.88
2023-08-21T17:55:46.051Z,9.75
2023-08-21T17:58:13.977Z,9.73
2023-08-21T18:00:42.718Z,9.88
2023-08-21T18:03:13.294Z,12.25
2023-08-21T18:05:42.486Z,10.45
2023-08-21T18:08:09.924Z,10.00
2023-08-21T18:10:38.050Z,9.70
2023-08-21T18:13:05.577Z,10.75
2023-08-21T18:15:38.011Z,11.75
2023-08-21T18:18:06.764Z,11.77
2023-08-21T18:20:56.282Z,15.27
2023-08-21T18:23:27.205Z,17.38
2023-08-21T18:25:58.511Z,14.80
2023-08-21T18:28:27.036Z,14.68
2023-08-21T18:31:01.549Z,14.55
2023-08-21T18:33:29.206Z,14.35
2023-08-21T18:35:59.151Z,14.60
2023-08-21T18:38:27.520Z,11.30
2023-08-21T18:40:56.192Z,11.65
2023-08-21T18:43:23.975Z,12.50
2023-08-21T18:45:53.010Z,12.60
2023-08-21T18:48:20.448Z,13.73
2023-08-21T18:50:48.819Z,13.88
2023-08-21T18:53:17.340Z,12.52
2023-08-21T18:55:47.657Z,11.00
2023-08-21T18:58:16.101Z,11.65
2023-08-21T19:00:44.145Z,11.80
2023-08-21T19:03:14.107Z,12.63
2023-08-21T19:05:41.737Z,12.15
2023-08-21T19:08:13.049Z,10.93
2023-08-21T19:10:40.823Z,10.90
2023-08-21T19:13:09.345Z,11.68
2023-08-21T19:15:36.736Z,13.75
2023-08-21T19:18:06.148Z,11.20
2023-08-21T19:20:33.594Z,12.00
2023-08-21T19:23:01.978Z,11.60
2023-08-21T19:25:30.308Z,12.20
2023-08-21T19:27:58.929Z,15.60
2023-08-21T19:30:26.523Z,12.30
2023-08-21T19:32:54.024Z,13.90
2023-08-21T19:35:24.804Z,13.20
2023-08-21T19:37:52.216Z,16.10
2023-08-21T19:40:20.254Z,13.25
2023-08-21T19:42:48.138Z,13.25
2023-08-21T19:45:20.668Z,13.57
2023-08-21T19:47:48.845Z,12.63
2023-08-21T19:50:16.304Z,12.55
2023-08-21T19:52:46.072Z,15.15
2023-08-21T19:55:13.415Z,11.98
2023-08-21T19:57:40.991Z,14.68
2023-08-21T20:00:12.950Z,14.18
2023-08-21T20:02:41.144Z,14.63
2023-08-21T20:05:09.965Z,15.40
2023-08-21T20:07:37.988Z,13.57
2023-08-21T20:10:06.748Z,12.02
2023-08-21T20:12:34.371Z,12.52
2023-08-21T20:15:05.584Z,13.23
2023-08-21T20:17:34.283Z,15.20
2023-08-21T20:20:01.770Z,14.90
2023-08-21T20:22:29.389Z,17.83
2023-08-21T20:24:57.465Z,13.77
2023-08-21T20:27:28.730Z,13.00
2023-08-21T20:29:56.537Z,13.95
2023-08-21T20:32:24.116Z,16.15
2023-08-21T20:34:53.822Z,18.23
2023-08-21T20:37:21.913Z,16.52
2023-08-21T20:39:52.533Z,15.23
2023-08-21T20:42:21.678Z,14.43
2023-08-21T20:44:49.843Z,14.02
2023-08-21T20:47:18.387Z,14.57
2023-08-21T20:49:46.193Z,15.38
2023-08-21T20:52:14.341Z,13.75
2023-08-21T20:54:44.822Z,13.77
2023-08-21T20:57:13.880Z,12.98
2023-08-21T20:59:42.448Z,13.05
2023-08-21T21:02:10.132Z,12.90
2023-08-21T21:04:37.639Z,13.27
2023-08-21T21:07:07.356Z,11.95
2023-08-21T21:09:38.124Z,12.82
2023-08-21T21:12:06.172Z,12.45
2023-08-21T21:14:33.610Z,13.30
2023-08-21T21:17:01.144Z,14.70
2023-08-21T21:19:29.022Z,13.60
2023-08-21T21:21:57.027Z,11.88
2023-08-21T21:24:26.612Z,15.57
2023-08-21T21:26:55.573Z,12.43
2023-08-21T21:29:23.557Z,13.13
2023-08-21T21:31:51.482Z,13.30
2023-08-21T21:34:18.902Z,13.65
2023-08-21T21:36:46.984Z,16.45
2023-08-21T21:39:15.402Z,15.23
2023-08-21T21:41:43.181Z,15.68
2023-08-21T21:44:10.846Z,13.80
2023-08-21T21:46:38.219Z,11.95
2023-08-21T21:49:05.734Z,15.20
2023-08-21T21:51:33.221Z,13.00
2023-08-21T21:54:01.240Z,12.52
2023-08-21T21:56:28.640Z,13.52
2023-08-21T21:58:56.093Z,12.52
2023-08-21T22:01:23.598Z,13.48
2023-08-21T22:03:52.166Z,11.75
2023-08-21T22:06:19.830Z,12.95
2023-08-21T22:08:47.156Z,13.57
2023-08-21T22:11:17.303Z,13.18
2023-08-21T22:13:45.088Z,11.10
2023-08-21T22:16:12.704Z,12.60
2023-08-21T22:18:41.045Z,11.75
2023-08-21T22:21:09.658Z,13.38
2023-08-21T22:23:37.646Z,15.60
2023-08-21T22:26:05.451Z,14.13
2023-08-21T22:28:33.234Z,12.00
2023-08-21T22:31:00.835Z,13.82
2023-08-21T22:33:28.297Z,13.95
2023-08-21T22:35:55.778Z,11.80
2023-08-21T22:38:23.543Z,12.30
2023-08-21T22:40:51.496Z,14.63
2023-08-21T22:43:18.906Z,12.35
2023-08-21T22:45:46.709Z,11.93
2023-08-21T22:48:15.441Z,11.10
2023-08-21T22:50:42.911Z,10.98
2023-08-21T22:53:10.343Z,11.80
2023-08-21T22:55:38.471Z,11.32
2023-08-21T22:58:06.034Z,13.02
2023-08-21T23:00:34.288Z,17.02
2023-08-21T23:03:01.816Z,13.35
2023-08-21T23:05:29.733Z,14.65
2023-08-21T23:07:57.321Z,12.10
2023-08-21T23:10:24.857Z,14.43
2023-08-21T23:12:53.110Z,11.98
2023-08-21T23:15:20.638Z,12.18
2023-08-21T23:17:48.380Z,11.77
2023-08-21T23:20:16.191Z,13.45
2023-08-21T23:22:43.533Z,13.60
2023-08-21T23:25:12.154Z,12.40
2023-08-21T23:27:40.412Z,13.35
2023-08-21T23:30:08.825Z,11.00
2023-08-21T23:32:37.448Z,13.10
2023-08-21T23:35:06.340Z,10.77
2023-08-21T23:37:33.920Z,11.75
2023-08-21T23:40:01.450Z,10.57
2023-08-21T23:42:28.939Z,14.02
2023-08-21T23:44:56.306Z,13.65
2023-08-21T23:47:23.655Z,12.98
2023-08-21T23:49:51.379Z,12.68
2023-08-21T23:52:20.882Z,11.77
2023-08-21T23:54:49.565Z,13.50
2023-08-21T23:57:16.832Z,12.95
2023-08-21T23:59:44.202Z,10.63
